Regina, Canada
Current Conditions -  °F | °C
As of 9:00 PM on Wednesday 22 Oct 2014 (Local Time) from CYQR Reporting Station
Few Clouds Few Clouds  
Wind Chill: 39°   Ceiling: Unl
Heat Index: 43°   Visibility: 15mi
Dew Point: 41°   Wind: 7mph
Humidity: 93%   Direction: 220°SW
Pressure: 29.79"   Gusts: NA
Location:  50.45°N, 104.6°W
Report Text: CYQR 230300Z 22006KT 15SM FEW100 06/05 A2979 RMK AC2 SLP104
Loading
Personal Weather Stations






























Interactive Weather Map
Tropical Storm Tracking
New forecast layout! Learn more

10-Day Weather Forecast

Advertisements
Track Severe Weather on mobile